Station: Coolangatta

  Atmospheric Gas Attenuation - ITU Rec 676-11   --------------- db/100km ---------------
Date Time Temp RH % AH g/m3 Dew Point Wind Direction Speed kph Gust kph Barometer mB Rainfall Since 9am 24GHz 47GHz 76GHz 122GHz 134GHz 241GHz
27 02:50 23.7 85 18.18 21 6 7 1010.5 0 39.4 39.0 74.4 196.9 215.6 748.5
27 02:40 23.8 85 18.28 21.1 7 7 1010.6 0 39.6 39.1 74.8 197.9 216.8 752.9
27 01:30 23.9 85 18.39 21.2 7 11 1010.7 0 39.8 39.3 75.3 199.1 218.2 757.8
27 02:30 23.9 85 18.39 21.2 7 11 1010.7 0 39.8 39.3 75.3 199.1 218.2 757.8
27 02:20 23.8 86 18.5 21.3 9 9 1010.8 0 40.0 39.6 75.9 200.7 220.2 764.8
27 02:10 23.7 86 18.39 21.2 7 7 1010.9 0 39.8 39.4 75.5 199.6 218.9 759.9
27 02:00 23.7 86 18.39 21.2 7 11 1011 0 39.8 39.4 75.5 199.6 218.9 760.0
27 01:50 23.7 86 18.39 21.2 7 9 1011.1 0 39.8 39.4 75.5 199.6 218.9 760.1
27 01:40 23.7 86 18.39 21.2 11 11 1011.3 0 39.8 39.4 75.5 199.7 218.9 760.2
27 01:20 24 84 18.27 21.1 9 9 1011.4 0 39.5 39.1 74.6 197.4 216.2 750.8
27 01:10 24.1 84 18.38 21.2 7 9 1011.4 0 39.7 39.2 75.1 198.5 217.6 755.7
27 01:00 24.3 83 18.37 21.2 9 11 1011.6 0 39.7 39.1 74.8 197.9 216.9 753.2
27 00:50 24.4 83 18.47 21.3 7 7 1011.7 0 39.9 39.3 75.2 198.9 218.2 757.6
27 00:40 24.8 81 18.44 21.3 7 7 1011.9 0 39.8 39.0 74.7 197.5 216.6 752.1
27 00:30 24.9 81 18.54 21.4 7 9 1012 0 40.0 39.2 75.0 198.5 217.8 756.5
27 00:20 25.1 80 18.52 21.4 7 9 1011.9 0 39.9 39.0 74.7 197.7 216.9 753.4
27 00:10 25.4 78 18.36 21.3 9 11 1012 0 39.6 38.6 73.7 195.0 213.6 742.0
27 00:00 25.7 77 18.43 21.4 13 17 1012 0 39.7 38.6 73.8 195.1 213.8 742.8
26 23:50 25.9 77 18.64 21.6 17 20 1012.1 0 40.1 38.9 74.5 197.2 216.4 751.9
26 23:40 26 76 18.5 21.4 17 20 1012.1 0 39.8 38.6 73.8 195.2 214.1 743.6
26 23:30 26.1 76 18.61 21.5 17 20 1012 0 40.0 38.7 74.2 196.3 215.4 748.3
26 23:20 26.1 75 18.36 21.3 19 20 1012 0 39.5 38.3 73.0 193.2 211.7 735.2
26 23:10 26.1 76 18.61 21.5 15 17 1012.1 0 40.0 38.7 74.2 196.3 215.4 748.3
26 23:00 26.2 75 18.46 21.4 15 20 1012.1 0 39.7 38.4 73.4 194.2 212.9 739.5
26 22:50 26.2 76 18.71 21.6 15 15 1012.1 0 40.2 38.9 74.6 197.2 216.6 752.6
26 22:40 26.2 75 18.46 21.4 17 19 1012 0 39.7 38.4 73.4 194.2 212.9 739.5
26 22:30 26.2 75 18.46 21.4 17 24 1011.9 0 39.7 38.4 73.4 194.2 212.9 739.4
26 22:20 26.2 75 18.46 21.4 20 20 1012 0 39.7 38.4 73.4 194.2 212.9 739.5
26 22:10 26.3 75 18.57 21.5 19 22 1012 0 39.9 38.6 73.8 195.3 214.2 744.2
26 22:00 26.3 76 18.81 21.7 19 22 1011.8 0 40.4 39.0 74.9 198.2 217.8 756.7
26 21:50 26.3 76 18.81 21.7 17 19 1011.9 0 40.4 39.0 74.9 198.2 217.8 756.7
26 21:40 26.3 76 18.81 21.7 17 19 1011.9 0 40.4 39.0 74.9 198.2 217.8 756.7
26 21:30 26.1 75 18.36 21.3 19 24 1011.7 0 39.5 38.3 73.0 193.2 211.6 735.1
26 21:20 26.1 76 18.61 21.5 15 19 1011.5 0 40.0 38.7 74.2 196.2 215.3 748.0
26 21:10 26.1 76 18.61 21.5 15 17 1011.4 0 40.0 38.7 74.2 196.2 215.3 748.0
26 21:00 26.2 75 18.46 21.4 20 26 1011.2 0 39.7 38.4 73.4 194.0 212.8 739.1
26 20:50 26.3 75 18.57 21.5 20 22 1011.3 0 39.9 38.5 73.8 195.1 214.1 743.9
26 20:40 26.4 75 18.67 21.6 15 19 1011.2 0 40.1 38.7 74.1 196.1 215.3 748.1
26 20:30 26.4 74 18.42 21.4 20 24 1011.1 0 39.6 38.2 73.0 193.0 211.6 735.0
26 20:20 26.3 74 18.32 21.3 20 24 1011 0 39.4 38.1 72.6 192.1 210.4 730.7
26 20:10 26.2 76 18.71 21.6 17 17 1010.7 0 40.2 38.8 74.5 197.0 216.4 751.9
26 20:00 26.4 76 18.92 21.8 19 22 1010.5 0 40.7 39.1 75.2 199.1 219.0 760.8
26 19:50 26.3 76 18.81 21.7 20 22 1010.3 0 40.4 38.9 74.8 197.9 217.6 755.9
26 19:40 26.3 75 18.57 21.5 20 22 1010.1 0 39.9 38.5 73.7 195.0 213.9 743.3
26 19:30 26.3 76 18.81 21.7 19 24 1010 0 40.4 38.9 74.8 197.9 217.5 755.7
26 19:20 26.3 77 19.06 21.9 19 20 1009.9 0 41.0 39.4 75.9 200.9 221.3 768.8
26 19:10 26.4 77 19.17 22 17 20 1009.8 0 41.2 39.5 76.3 202.0 222.7 773.6
26 19:00 26.4 77 19.17 22 17 22 1009.7 0 41.2 39.5 76.3 202.0 222.6 773.5
26 18:50 26.6 76 19.13 22 17 19 1009.6 0 41.1 39.4 76.0 201.0 221.4 769.3
26 18:40 26.7 75 18.98 21.9 17 19 1009.5 0 40.8 39.0 75.2 198.8 218.9 760.4
26 18:30 27 75 19.3 22.2 17 20 1009.4 0 41.4 39.5 76.3 202.0 222.8 774.1
26 18:20 27.2 74 19.26 22.2 17 19 1009.2 0 41.3 39.3 75.9 200.9 221.6 769.8
26 18:10 27.4 73 19.21 22.1 17 20 1009.1 0 41.2 39.1 75.5 199.8 220.2 765.2
26 18:00 27.3 72 18.84 21.8 19 22 1008.9 0 40.4 38.5 73.9 195.5 214.9 746.9
26 17:50 27.3 72 18.84 21.8 19 20 1009 0 40.4 38.5 73.9 195.5 215.0 746.9
26 17:40 27 73 18.79 21.7 17 20 1009 0 40.3 38.5 74.0 195.7 215.1 747.3
26 17:30 27.7 72 19.26 22.2 20 24 1008.9 0 41.3 39.1 75.4 199.6 220.0 764.6
26 17:20 27.6 71 18.89 21.9 17 20 1008.9 0 40.5 38.4 73.8 195.3 214.8 746.5
26 17:10 27.7 70 18.73 21.7 20 20 1008.8 0 40.1 38.1 73.0 193.1 212.2 737.3
26 17:00 27.8 71 19.1 22.1 22 26 1008.7 0 40.9 38.7 74.6 197.3 217.3 755.3
26 16:50 27.9 70 18.93 21.9 22 24 1008.7 0 40.5 38.4 73.7 195.0 214.5 745.5
26 16:40 28.1 70 19.14 22.3 19 22 1008.7 0 41.0 38.7 74.5 197.0 217.1 754.3
26 16:30 28 70 19.04 22 20 26 1008.7 0 40.8 38.5 74.1 196.1 215.9 750.2
26 16:20 28.1 70 19.14 22.3 20 22 1008.8 0 41.0 38.7 74.5 197.1 217.1 754.4
26 16:10 27.9 70 18.93 21.9 24 28 1008.8 0 40.5 38.4 73.7 195.0 214.6 745.6
26 16:00 28.2 70 19.25 22.2 22 28 1008.9 0 41.2 38.8 74.9 198.1 218.4 759.1
26 15:50 28 70 19.04 22 22 24 1008.9 0 40.8 38.5 74.1 196.1 215.9 750.3
26 15:40 28.3 70 19.35 22.3 22 24 1008.9 0 41.4 39.0 75.2 199.1 219.6 763.3
26 15:30 28.4 70 19.46 22.4 22 28 1009 0 41.6 39.1 75.6 200.2 221.0 768.0
26 15:20 28.9 69 19.71 22.6 24 28 1009 0 42.1 39.3 76.3 201.9 223.2 775.8
26 15:10 28.3 70 19.35 22.3 22 28 1009.1 0 41.4 39.0 75.2 199.1 219.7 763.4
26 15:00 28.4 70 19.46 22.4 22 28 1009.2 0 41.6 39.1 75.6 200.2 221.0 768.1
26 14:50 28.1 70 19.14 22.3 24 28 1009.3 0 41.0 38.7 74.5 197.1 217.2 754.7
26 14:40 28.2 70 19.25 22.2 26 28 1009.4 0 41.2 38.8 74.9 198.2 218.5 759.4
26 14:30 28.5 69 19.29 22.3 24 30 1009.5 0 41.2 38.8 74.8 197.9 218.2 758.5
26 14:20 28.5 70 19.57 22.5 24 28 1009.6 0 41.8 39.3 76.1 201.3 222.4 773.0
26 14:10 28.7 71 20.06 22.9 24 26 1009.6 0 42.8 40.1 78.1 206.8 229.1 796.4
26 14:00 28.3 71 19.63 22.5 24 32 1009.7 0 42.0 39.5 76.6 202.6 223.9 778.2
26 13:50 28.5 70 19.57 22.5 22 28 1009.8 0 41.8 39.3 76.1 201.4 222.4 773.1
26 13:40 28.3 69 19.08 22.1 26 28 1009.9 0 40.8 38.5 74.1 196.0 215.8 749.9
26 13:30 28.2 68 18.7 21.7 24 28 1009.9 0 40.0 37.9 72.5 191.7 210.5 731.5
26 13:20 28.5 69 19.29 22.3 24 28 1009.9 0 41.2 38.8 74.8 198.0 218.3 758.7
26 13:10 28.2 69 18.97 22 24 26 1010 0 40.6 38.4 73.7 194.9 214.5 745.3
26 13:00 27.9 67 18.12 21.4 24 28 1010.1 0 38.8 37.0 70.2 185.6 202.9 705.1
26 12:50 28.2 69 18.97 22 20 24 1010.1 0 40.6 38.4 73.7 195.0 214.5 745.4
26 12:40 28.3 68 18.8 21.8 19 24 1010.2 0 40.2 38.0 72.8 192.7 211.7 735.8
26 12:30 28.8 70 19.89 22.8 20 26 1010.3 0 42.5 39.8 77.3 204.5 226.4 786.9
26 12:20 28.4 68 18.9 21.9 20 24 1010.3 0 40.4 38.1 73.2 193.6 212.9 739.9
26 12:10 28.6 67 18.83 21.9 19 20 1010.4 0 40.2 37.9 72.7 192.3 211.3 734.5
26 12:00 28.1 68 18.6 21.6 20 24 1010.4 0 39.8 37.7 72.1 190.8 209.4 727.6
26 11:50 28.1 68 18.6 21.6 19 20 1010.4 0 39.8 37.7 72.1 190.8 209.4 727.6
26 11:40 27.7 68 18.19 21.3 20 24 1010.6 0 39.0 37.2 70.7 187.0 204.5 710.7
26 11:30 28 67 18.22 21.3 20 24 1010.7 0 39.0 37.1 70.5 186.6 204.2 709.5
26 11:20 27.9 67 18.12 21.2 22 26 1010.7 0 38.8 37.0 70.2 185.7 203.0 705.3
26 11:10 27.9 66 17.85 21 19 20 1010.8 0 38.2 36.5 69.0 182.5 199.1 691.8
26 11:00 28.1 68 18.6 21.6 19 24 1010.8 0 39.8 37.8 72.2 190.9 209.4 727.8
26 10:50 27.7 68 18.19 21.3 19 22 1010.9 0 39.0 37.2 70.7 187.0 204.6 710.8
26 10:40 27.7 67 17.92 21 22 24 1011 0 38.4 36.7 69.5 183.9 200.7 697.3
26 10:30 27.6 67 17.83 20.9 19 24 1010.9 0 38.2 36.6 69.2 183.0 199.6 693.6
26 10:20 28.1 67 18.32 21.4 20 22 1010.9 0 39.2 37.3 70.9 187.6 205.4 713.7

Last Refresh: 27-Feb-2021 02:36:17

Most of the information presented on this site is sourced from the Bureau of Meteorology.  Copyright in all material sourced from the Bureau of Meteorology resides with the Commonwealth of Australia.